sensor_id;sensor_type;location;lat;lon;timestamp;temperature;humidity
30594;DHT22;33199;47.590;8.300;2023-03-31T00:01:30;14.30;73.30
30594;DHT22;33199;47.590;8.300;2023-03-31T00:03:58;14.30;73.30
30594;DHT22;33199;47.590;8.300;2023-03-31T00:06:32;14.30;73.30
30594;DHT22;33199;47.590;8.300;2023-03-31T00:09:07;14.30;73.30
30594;DHT22;33199;47.590;8.300;2023-03-31T00:11:33;14.30;73.30
30594;DHT22;33199;47.590;8.300;2023-03-31T00:13:58;14.30;73.40
30594;DHT22;33199;47.590;8.300;2023-03-31T00:16:24;14.20;73.40
30594;DHT22;33199;47.590;8.300;2023-03-31T00:18:50;14.20;73.40
30594;DHT22;33199;47.590;8.300;2023-03-31T00:21:21;14.20;73.40
30594;DHT22;33199;47.590;8.300;2023-03-31T00:23:55;14.30;73.40
30594;DHT22;33199;47.590;8.300;2023-03-31T00:26:21;14.20;73.50
30594;DHT22;33199;47.590;8.300;2023-03-31T00:28:48;14.20;73.40
30594;DHT22;33199;47.590;8.300;2023-03-31T00:31:14;14.20;73.50
30594;DHT22;33199;47.590;8.300;2023-03-31T00:33:40;14.20;73.40
30594;DHT22;33199;47.590;8.300;2023-03-31T00:36:06;14.20;73.50
30594;DHT22;33199;47.590;8.300;2023-03-31T00:38:34;14.20;73.40
30594;DHT22;33199;47.590;8.300;2023-03-31T00:41:00;14.20;73.40
30594;DHT22;33199;47.590;8.300;2023-03-31T00:43:33;14.20;73.40
30594;DHT22;33199;47.590;8.300;2023-03-31T00:46:17;14.20;73.50
30594;DHT22;33199;47.590;8.300;2023-03-31T00:48:52;14.20;73.50
30594;DHT22;33199;47.590;8.300;2023-03-31T00:51:23;14.20;73.50
30594;DHT22;33199;47.590;8.300;2023-03-31T00:53:53;14.20;73.50
30594;DHT22;33199;47.590;8.300;2023-03-31T00:56:36;14.20;73.60
30594;DHT22;33199;47.590;8.300;2023-03-31T00:59:07;14.20;73.60
30594;DHT22;33199;47.590;8.300;2023-03-31T01:01:33;14.20;73.60
30594;DHT22;33199;47.590;8.300;2023-03-31T01:04:01;14.20;73.60
30594;DHT22;33199;47.590;8.300;2023-03-31T01:06:27;14.20;73.60
30594;DHT22;33199;47.590;8.300;2023-03-31T01:08:55;14.20;73.60
30594;DHT22;33199;47.590;8.300;2023-03-31T01:11:23;14.20;73.60
30594;DHT22;33199;47.590;8.300;2023-03-31T01:13:52;14.20;73.50
30594;DHT22;33199;47.590;8.300;2023-03-31T01:16:20;14.20;73.50
30594;DHT22;33199;47.590;8.300;2023-03-31T01:18:47;14.10;73.50
30594;DHT22;33199;47.590;8.300;2023-03-31T01:21:38;14.20;73.60
30594;DHT22;33199;47.590;8.300;2023-03-31T01:30:17;14.10;73.70
30594;DHT22;33199;47.590;8.300;2023-03-31T01:33:05;14.10;73.70
30594;DHT22;33199;47.590;8.300;2023-03-31T01:36:09;14.10;73.70
30594;DHT22;33199;47.590;8.300;2023-03-31T01:41:33;14.10;73.70
30594;DHT22;33199;47.590;8.300;2023-03-31T01:44:12;14.10;73.70
30594;DHT22;33199;47.590;8.300;2023-03-31T01:46:55;14.10;73.70
30594;DHT22;33199;47.590;8.300;2023-03-31T02:00:42;14.10;73.70
30594;DHT22;33199;47.590;8.300;2023-03-31T02:03:23;14.10;73.70
30594;DHT22;33199;47.590;8.300;2023-03-31T02:05:56;14.10;73.70
30594;DHT22;33199;47.590;8.300;2023-03-31T02:08:44;14.10;73.70
30594;DHT22;33199;47.590;8.300;2023-03-31T02:11:11;14.10;73.70
30594;DHT22;33199;47.590;8.300;2023-03-31T02:13:40;14.10;73.70
30594;DHT22;33199;47.590;8.300;2023-03-31T02:16:11;14.10;73.70
30594;DHT22;33199;47.590;8.300;2023-03-31T02:18:38;14.10;73.70
30594;DHT22;33199;47.590;8.300;2023-03-31T02:21:06;14.00;73.70
30594;DHT22;33199;47.590;8.300;2023-03-31T02:23:35;14.00;73.70
30594;DHT22;33199;47.590;8.300;2023-03-31T02:26:14;14.00;73.70
30594;DHT22;33199;47.590;8.300;2023-03-31T02:28:41;14.00;73.70
30594;DHT22;33199;47.590;8.300;2023-03-31T02:31:10;14.00;73.70
30594;DHT22;33199;47.590;8.300;2023-03-31T02:33:40;14.00;73.70
30594;DHT22;33199;47.590;8.300;2023-03-31T02:36:06;14.00;73.70
30594;DHT22;33199;47.590;8.300;2023-03-31T02:41:35;14.00;73.70
30594;DHT22;33199;47.590;8.300;2023-03-31T02:44:01;14.00;73.80
30594;DHT22;33199;47.590;8.300;2023-03-31T02:46:27;14.00;73.80
30594;DHT22;33199;47.590;8.300;2023-03-31T02:48:55;14.00;73.80
30594;DHT22;33199;47.590;8.300;2023-03-31T03:11:19;13.90;73.80
30594;DHT22;33199;47.590;8.300;2023-03-31T03:14:36;13.90;73.80
30594;DHT22;33199;47.590;8.300;2023-03-31T03:16:50;13.90;73.80
30594;DHT22;33199;47.590;8.300;2023-03-31T03:19:22;13.90;73.80
30594;DHT22;33199;47.590;8.300;2023-03-31T03:21:48;13.90;73.80
30594;DHT22;33199;47.590;8.300;2023-03-31T03:24:15;13.90;73.80
30594;DHT22;33199;47.590;8.300;2023-03-31T03:26:43;13.90;73.80
30594;DHT22;33199;47.590;8.300;2023-03-31T03:29:10;13.90;73.80
30594;DHT22;33199;47.590;8.300;2023-03-31T03:31:38;13.90;73.80
30594;DHT22;33199;47.590;8.300;2023-03-31T03:34:03;13.90;73.80
30594;DHT22;33199;47.590;8.300;2023-03-31T03:36:29;13.90;73.80
30594;DHT22;33199;47.590;8.300;2023-03-31T03:38:54;13.90;73.80
30594;DHT22;33199;47.590;8.300;2023-03-31T03:41:20;13.90;73.80
30594;DHT22;33199;47.590;8.300;2023-03-31T03:43:46;13.90;73.80
30594;DHT22;33199;47.590;8.300;2023-03-31T03:46:12;13.90;73.80
30594;DHT22;33199;47.590;8.300;2023-03-31T03:48:37;13.90;73.70
30594;DHT22;33199;47.590;8.300;2023-03-31T03:51:03;13.90;73.80
30594;DHT22;33199;47.590;8.300;2023-03-31T03:53:29;13.90;73.80
30594;DHT22;33199;47.590;8.300;2023-03-31T03:55:54;13.90;73.80
30594;DHT22;33199;47.590;8.300;2023-03-31T03:58:20;13.90;73.80
30594;DHT22;33199;47.590;8.300;2023-03-31T04:00:46;13.90;73.80
30594;DHT22;33199;47.590;8.300;2023-03-31T04:03:12;13.90;73.80
30594;DHT22;33199;47.590;8.300;2023-03-31T04:05:38;13.90;73.80
30594;DHT22;33199;47.590;8.300;2023-03-31T04:08:03;13.80;73.70
30594;DHT22;33199;47.590;8.300;2023-03-31T04:10:30;13.90;73.80
30594;DHT22;33199;47.590;8.300;2023-03-31T04:12:56;13.90;73.80
30594;DHT22;33199;47.590;8.300;2023-03-31T04:15:22;13.90;73.80
30594;DHT22;33199;47.590;8.300;2023-03-31T04:17:47;13.90;73.80
30594;DHT22;33199;47.590;8.300;2023-03-31T04:20:16;13.80;73.70
30594;DHT22;33199;47.590;8.300;2023-03-31T04:22:42;13.80;73.80
30594;DHT22;33199;47.590;8.300;2023-03-31T04:25:13;13.80;73.70
30594;DHT22;33199;47.590;8.300;2023-03-31T04:27:46;13.80;73.70
30594;DHT22;33199;47.590;8.300;2023-03-31T04:30:16;13.80;73.80
30594;DHT22;33199;47.590;8.300;2023-03-31T04:32:51;13.80;73.80
30594;DHT22;33199;47.590;8.300;2023-03-31T04:35:18;13.80;73.80
30594;DHT22;33199;47.590;8.300;2023-03-31T04:37:46;13.80;73.70
30594;DHT22;33199;47.590;8.300;2023-03-31T04:40:12;13.80;73.80
30594;DHT22;33199;47.590;8.300;2023-03-31T04:42:37;13.80;73.70
30594;DHT22;33199;47.590;8.300;2023-03-31T04:45:03;13.80;73.70
30594;DHT22;33199;47.590;8.300;2023-03-31T04:47:29;13.80;73.80
30594;DHT22;33199;47.590;8.300;2023-03-31T04:49:55;13.80;73.70
30594;DHT22;33199;47.590;8.300;2023-03-31T04:52:21;13.80;73.80
30594;DHT22;33199;47.590;8.300;2023-03-31T04:54:46;13.80;73.80
30594;DHT22;33199;47.590;8.300;2023-03-31T04:57:12;13.80;73.80
30594;DHT22;33199;47.590;8.300;2023-03-31T04:59:37;13.70;72.90
30594;DHT22;33199;47.590;8.300;2023-03-31T05:02:03;13.60;73.20
30594;DHT22;33199;47.590;8.300;2023-03-31T05:04:28;13.60;73.50
30594;DHT22;33199;47.590;8.300;2023-03-31T05:06:54;13.50;73.80
30594;DHT22;33199;47.590;8.300;2023-03-31T05:09:21;13.50;74.00
30594;DHT22;33199;47.590;8.300;2023-03-31T05:11:46;13.50;74.10
30594;DHT22;33199;47.590;8.300;2023-03-31T05:14:12;13.50;74.10
30594;DHT22;33199;47.590;8.300;2023-03-31T05:16:38;13.50;74.20
30594;DHT22;33199;47.590;8.300;2023-03-31T05:19:06;13.50;74.20
30594;DHT22;33199;47.590;8.300;2023-03-31T05:21:32;13.50;74.10
30594;DHT22;33199;47.590;8.300;2023-03-31T05:23:58;13.50;74.10
30594;DHT22;33199;47.590;8.300;2023-03-31T05:26:24;13.50;74.10
30594;DHT22;33199;47.590;8.300;2023-03-31T05:28:50;13.50;74.10
30594;DHT22;33199;47.590;8.300;2023-03-31T05:31:17;13.50;74.00
30594;DHT22;33199;47.590;8.300;2023-03-31T05:33:42;13.50;74.00
30594;DHT22;33199;47.590;8.300;2023-03-31T05:36:15;13.50;74.00
30594;DHT22;33199;47.590;8.300;2023-03-31T05:38:42;13.50;74.00
30594;DHT22;33199;47.590;8.300;2023-03-31T05:41:09;13.50;74.70
30594;DHT22;33199;47.590;8.300;2023-03-31T05:43:36;13.50;74.70
30594;DHT22;33199;47.590;8.300;2023-03-31T05:46:03;13.50;73.90
30594;DHT22;33199;47.590;8.300;2023-03-31T05:48:29;13.50;73.90
30594;DHT22;33199;47.590;8.300;2023-03-31T05:51:00;13.50;73.90
30594;DHT22;33199;47.590;8.300;2023-03-31T05:53:26;13.50;73.90
30594;DHT22;33199;47.590;8.300;2023-03-31T05:56:01;13.50;73.90
30594;DHT22;33199;47.590;8.300;2023-03-31T05:58:27;13.50;73.90
30594;DHT22;33199;47.590;8.300;2023-03-31T06:01:11;13.50;73.90
30594;DHT22;33199;47.590;8.300;2023-03-31T06:03:39;13.40;74.70
30594;DHT22;33199;47.590;8.300;2023-03-31T06:06:08;13.50;73.90
30594;DHT22;33199;47.590;8.300;2023-03-31T06:08:35;13.40;73.90
30594;DHT22;33199;47.590;8.300;2023-03-31T06:11:06;13.50;73.90
30594;DHT22;33199;47.590;8.300;2023-03-31T06:13:33;13.50;73.90
30594;DHT22;33199;47.590;8.300;2023-03-31T06:16:00;13.40;73.90
30594;DHT22;33199;47.590;8.300;2023-03-31T06:18:28;13.40;73.80
30594;DHT22;33199;47.590;8.300;2023-03-31T06:20:54;13.40;73.80
30594;DHT22;33199;47.590;8.300;2023-03-31T06:23:21;13.40;73.90
30594;DHT22;33199;47.590;8.300;2023-03-31T06:25:47;13.40;73.90
30594;DHT22;33199;47.590;8.300;2023-03-31T06:28:13;13.40;73.80
30594;DHT22;33199;47.590;8.300;2023-03-31T06:30:39;13.40;73.90
30594;DHT22;33199;47.590;8.300;2023-03-31T06:33:04;13.40;73.90
30594;DHT22;33199;47.590;8.300;2023-03-31T06:35:30;13.40;73.90
30594;DHT22;33199;47.590;8.300;2023-03-31T06:37:56;13.40;73.90
30594;DHT22;33199;47.590;8.300;2023-03-31T06:40:22;13.40;73.90
30594;DHT22;33199;47.590;8.300;2023-03-31T06:42:47;13.40;73.90
30594;DHT22;33199;47.590;8.300;2023-03-31T06:45:13;13.40;73.80
30594;DHT22;33199;47.590;8.300;2023-03-31T06:47:40;13.40;73.80
30594;DHT22;33199;47.590;8.300;2023-03-31T06:50:07;13.40;73.90
30594;DHT22;33199;47.590;8.300;2023-03-31T06:52:34;13.40;73.90
30594;DHT22;33199;47.590;8.300;2023-03-31T06:55:00;13.40;73.90
30594;DHT22;33199;47.590;8.300;2023-03-31T06:57:26;13.40;73.90
30594;DHT22;33199;47.590;8.300;2023-03-31T06:59:52;13.40;73.90
30594;DHT22;33199;47.590;8.300;2023-03-31T07:02:18;13.40;73.80
30594;DHT22;33199;47.590;8.300;2023-03-31T07:04:44;13.40;73.90
30594;DHT22;33199;47.590;8.300;2023-03-31T07:07:10;13.40;73.90
30594;DHT22;33199;47.590;8.300;2023-03-31T07:09:35;13.40;73.90
30594;DHT22;33199;47.590;8.300;2023-03-31T07:12:02;13.40;73.80
30594;DHT22;33199;47.590;8.300;2023-03-31T07:14:30;13.40;73.90
30594;DHT22;33199;47.590;8.300;2023-03-31T07:16:56;13.30;73.80
30594;DHT22;33199;47.590;8.300;2023-03-31T07:19:21;13.40;74.10
30594;DHT22;33199;47.590;8.300;2023-03-31T07:21:47;13.40;73.90
30594;DHT22;33199;47.590;8.300;2023-03-31T07:24:13;13.30;73.80
30594;DHT22;33199;47.590;8.300;2023-03-31T07:26:39;13.30;73.80
30594;DHT22;33199;47.590;8.300;2023-03-31T07:29:05;13.30;73.80
30594;DHT22;33199;47.590;8.300;2023-03-31T07:31:30;13.30;73.80
30594;DHT22;33199;47.590;8.300;2023-03-31T07:33:56;13.30;73.90
30594;DHT22;33199;47.590;8.300;2023-03-31T07:36:22;13.30;73.80
30594;DHT22;33199;47.590;8.300;2023-03-31T07:38:48;13.40;73.90
30594;DHT22;33199;47.590;8.300;2023-03-31T07:41:19;13.30;73.80
30594;DHT22;33199;47.590;8.300;2023-03-31T07:43:45;13.30;74.60
30594;DHT22;33199;47.590;8.300;2023-03-31T07:46:24;13.30;73.80
30594;DHT22;33199;47.590;8.300;2023-03-31T07:48:50;13.30;73.80
30594;DHT22;33199;47.590;8.300;2023-03-31T07:51:17;13.30;73.80
30594;DHT22;33199;47.590;8.300;2023-03-31T07:53:43;13.30;73.80
30594;DHT22;33199;47.590;8.300;2023-03-31T07:56:09;13.30;73.80
30594;DHT22;33199;47.590;8.300;2023-03-31T07:58:35;13.30;73.80
30594;DHT22;33199;47.590;8.300;2023-03-31T08:01:01;13.30;73.80
30594;DHT22;33199;47.590;8.300;2023-03-31T08:03:28;13.30;74.60
30594;DHT22;33199;47.590;8.300;2023-03-31T08:05:54;13.30;73.80
30594;DHT22;33199;47.590;8.300;2023-03-31T08:08:20;13.30;73.80
30594;DHT22;33199;47.590;8.300;2023-03-31T08:10:47;13.20;73.80
30594;DHT22;33199;47.590;8.300;2023-03-31T08:13:12;13.20;73.80
30594;DHT22;33199;47.590;8.300;2023-03-31T08:15:38;13.30;73.80
30594;DHT22;33199;47.590;8.300;2023-03-31T08:18:06;13.20;73.70
30594;DHT22;33199;47.590;8.300;2023-03-31T08:20:32;13.30;73.80
30594;DHT22;33199;47.590;8.300;2023-03-31T08:22:57;13.30;73.80
30594;DHT22;33199;47.590;8.300;2023-03-31T08:25:23;13.30;73.80
30594;DHT22;33199;47.590;8.300;2023-03-31T08:27:49;13.30;73.80
30594;DHT22;33199;47.590;8.300;2023-03-31T08:30:17;13.30;73.90
30594;DHT22;33199;47.590;8.300;2023-03-31T08:32:42;13.30;73.80
30594;DHT22;33199;47.590;8.300;2023-03-31T08:35:08;13.30;73.80
30594;DHT22;33199;47.590;8.300;2023-03-31T08:37:36;13.20;73.70
30594;DHT22;33199;47.590;8.300;2023-03-31T08:40:05;13.30;73.80
30594;DHT22;33199;47.590;8.300;2023-03-31T08:45:10;13.20;73.80
30594;DHT22;33199;47.590;8.300;2023-03-31T08:47:39;13.20;73.70
30594;DHT22;33199;47.590;8.300;2023-03-31T08:50:29;13.30;73.80
30594;DHT22;33199;47.590;8.300;2023-03-31T08:55:35;13.20;73.80
30594;DHT22;33199;47.590;8.300;2023-03-31T09:01:00;13.20;73.80
30594;DHT22;33199;47.590;8.300;2023-03-31T09:06:15;13.30;74.00
30594;DHT22;33199;47.590;8.300;2023-03-31T09:08:43;13.20;73.80
30594;DHT22;33199;47.590;8.300;2023-03-31T09:11:34;13.20;73.90
30594;DHT22;33199;47.590;8.300;2023-03-31T09:17:12;13.30;74.30
30594;DHT22;33199;47.590;8.300;2023-03-31T09:19:53;13.30;74.00
30594;DHT22;33199;47.590;8.300;2023-03-31T09:22:29;13.30;74.00
30594;DHT22;33199;47.590;8.300;2023-03-31T09:27:54;13.30;73.80
30594;DHT22;33199;47.590;8.300;2023-03-31T09:30:28;13.30;73.80
30594;DHT22;33199;47.590;8.300;2023-03-31T09:33:28;13.30;73.80
30594;DHT22;33199;47.590;8.300;2023-03-31T09:36:01;13.30;73.80
30594;DHT22;33199;47.590;8.300;2023-03-31T09:38:28;13.30;73.80
30594;DHT22;33199;47.590;8.300;2023-03-31T09:41:00;13.30;73.80
30594;DHT22;33199;47.590;8.300;2023-03-31T09:43:28;13.30;73.80
30594;DHT22;33199;47.590;8.300;2023-03-31T09:45:56;13.20;73.70
30594;DHT22;33199;47.590;8.300;2023-03-31T09:48:27;13.30;73.80
30594;DHT22;33199;47.590;8.300;2023-03-31T09:50:58;13.20;73.70
30594;DHT22;33199;47.590;8.300;2023-03-31T09:56:10;13.30;73.80
30594;DHT22;33199;47.590;8.300;2023-03-31T09:58:45;13.20;73.90
30594;DHT22;33199;47.590;8.300;2023-03-31T10:01:13;13.30;73.80
30594;DHT22;33199;47.590;8.300;2023-03-31T10:06:15;13.20;73.80
30594;DHT22;33199;47.590;8.300;2023-03-31T10:09:00;13.20;73.80
30594;DHT22;33199;47.590;8.300;2023-03-31T10:11:26;13.20;73.80
30594;DHT22;33199;47.590;8.300;2023-03-31T10:14:02;13.20;73.80
30594;DHT22;33199;47.590;8.300;2023-03-31T10:18:54;13.30;73.90
30594;DHT22;33199;47.590;8.300;2023-03-31T10:21:24;13.20;73.80
30594;DHT22;33199;47.590;8.300;2023-03-31T10:23:51;13.20;73.80
30594;DHT22;33199;47.590;8.300;2023-03-31T10:26:22;13.20;73.80
30594;DHT22;33199;47.590;8.300;2023-03-31T10:28:51;13.20;73.80
30594;DHT22;33199;47.590;8.300;2023-03-31T10:31:33;13.20;73.80
30594;DHT22;33199;47.590;8.300;2023-03-31T10:34:05;13.20;73.70
30594;DHT22;33199;47.590;8.300;2023-03-31T10:36:32;13.20;73.70
30594;DHT22;33199;47.590;8.300;2023-03-31T10:39:05;13.20;73.60
30594;DHT22;33199;47.590;8.300;2023-03-31T10:41:31;13.20;73.70
30594;DHT22;33199;47.590;8.300;2023-03-31T10:43:59;13.20;73.70
30594;DHT22;33199;47.590;8.300;2023-03-31T10:46:46;13.20;73.70
30594;DHT22;33199;47.590;8.300;2023-03-31T10:49:24;13.20;73.70
30594;DHT22;33199;47.590;8.300;2023-03-31T10:51:52;13.20;73.70
30594;DHT22;33199;47.590;8.300;2023-03-31T10:54:18;13.20;73.70
30594;DHT22;33199;47.590;8.300;2023-03-31T10:56:53;13.20;73.60
30594;DHT22;33199;47.590;8.300;2023-03-31T11:05:11;13.20;73.70
30594;DHT22;33199;47.590;8.300;2023-03-31T11:13:23;13.20;73.50
30594;DHT22;33199;47.590;8.300;2023-03-31T11:21:19;13.20;73.50
30594;DHT22;33199;47.590;8.300;2023-03-31T11:23:57;13.20;73.40
30594;DHT22;33199;47.590;8.300;2023-03-31T11:37:33;13.20;73.20
30594;DHT22;33199;47.590;8.300;2023-03-31T11:43:28;13.30;74.00
30594;DHT22;33199;47.590;8.300;2023-03-31T11:45:28;13.30;73.30
30594;DHT22;33199;47.590;8.300;2023-03-31T11:47:59;13.30;72.80
30594;DHT22;33199;47.590;8.300;2023-03-31T11:50:31;13.30;72.80
30594;DHT22;33199;47.590;8.300;2023-03-31T11:52:59;13.30;72.80
30594;DHT22;33199;47.590;8.300;2023-03-31T11:55:28;13.30;72.70
30594;DHT22;33199;47.590;8.300;2023-03-31T12:00:34;13.30;72.60
30594;DHT22;33199;47.590;8.300;2023-03-31T12:03:22;13.30;72.60
30594;DHT22;33199;47.590;8.300;2023-03-31T12:05:56;13.30;72.30
30594;DHT22;33199;47.590;8.300;2023-03-31T12:08:38;13.30;72.70
30594;DHT22;33199;47.590;8.300;2023-03-31T12:11:14;13.30;72.40
30594;DHT22;33199;47.590;8.300;2023-03-31T12:13:54;13.30;72.30
30594;DHT22;33199;47.590;8.300;2023-03-31T12:21:47;13.30;72.30
30594;DHT22;33199;47.590;8.300;2023-03-31T12:24:15;13.30;72.30
30594;DHT22;33199;47.590;8.300;2023-03-31T12:26:50;13.30;72.30
30594;DHT22;33199;47.590;8.300;2023-03-31T12:31:54;13.30;72.40
30594;DHT22;33199;47.590;8.300;2023-03-31T12:34:22;13.30;72.40
30594;DHT22;33199;47.590;8.300;2023-03-31T12:44:43;13.20;72.60
30594;DHT22;33199;47.590;8.300;2023-03-31T12:49:58;13.20;72.50
30594;DHT22;33199;47.590;8.300;2023-03-31T12:52:51;13.20;72.60
30594;DHT22;33199;47.590;8.300;2023-03-31T13:08:53;13.30;72.70
30594;DHT22;33199;47.590;8.300;2023-03-31T13:11:41;13.30;72.70
30594;DHT22;33199;47.590;8.300;2023-03-31T13:14:35;13.30;72.60
30594;DHT22;33199;47.590;8.300;2023-03-31T13:17:28;13.20;72.70
30594;DHT22;33199;47.590;8.300;2023-03-31T13:20:09;13.20;72.70
30594;DHT22;33199;47.590;8.300;2023-03-31T13:22:45;13.20;72.80
30594;DHT22;33199;47.590;8.300;2023-03-31T13:27:58;13.20;72.70
30594;DHT22;33199;47.590;8.300;2023-03-31T13:33:04;13.30;72.80
30594;DHT22;33199;47.590;8.300;2023-03-31T13:35:37;13.20;72.60
30594;DHT22;33199;47.590;8.300;2023-03-31T13:41:40;13.30;72.70
30594;DHT22;33199;47.590;8.300;2023-03-31T13:58:19;13.30;72.60
30594;DHT22;33199;47.590;8.300;2023-03-31T14:06:46;13.30;72.50
30594;DHT22;33199;47.590;8.300;2023-03-31T14:09:35;13.30;72.50
30594;DHT22;33199;47.590;8.300;2023-03-31T14:12:17;13.30;72.60
30594;DHT22;33199;47.590;8.300;2023-03-31T14:14:43;13.30;71.80
30594;DHT22;33199;47.590;8.300;2023-03-31T14:17:10;13.20;71.90
30594;DHT22;33199;47.590;8.300;2023-03-31T14:19:49;13.30;72.00
30594;DHT22;33199;47.590;8.300;2023-03-31T14:33:21;13.30;71.70
30594;DHT22;33199;47.590;8.300;2023-03-31T14:38:40;13.30;72.20
30594;DHT22;33199;47.590;8.300;2023-03-31T14:41:16;13.30;72.20
30594;DHT22;33199;47.590;8.300;2023-03-31T14:43:48;13.30;72.40
30594;DHT22;33199;47.590;8.300;2023-03-31T14:46:19;13.30;72.20
30594;DHT22;33199;47.590;8.300;2023-03-31T14:48:47;13.30;72.20
30594;DHT22;33199;47.590;8.300;2023-03-31T14:51:23;13.30;72.30
30594;DHT22;33199;47.590;8.300;2023-03-31T14:54:01;13.30;72.20
30594;DHT22;33199;47.590;8.300;2023-03-31T14:56:38;13.30;72.20
30594;DHT22;33199;47.590;8.300;2023-03-31T14:59:06;13.30;72.30
30594;DHT22;33199;47.590;8.300;2023-03-31T15:01:34;13.30;72.20
30594;DHT22;33199;47.590;8.300;2023-03-31T15:04:16;13.30;72.30
30594;DHT22;33199;47.590;8.300;2023-03-31T15:06:44;13.30;72.40
30594;DHT22;33199;47.590;8.300;2023-03-31T15:09:24;13.30;72.50
30594;DHT22;33199;47.590;8.300;2023-03-31T15:12:15;13.30;72.50
30594;DHT22;33199;47.590;8.300;2023-03-31T15:14:46;13.30;72.50
30594;DHT22;33199;47.590;8.300;2023-03-31T15:17:43;13.30;72.60
30594;DHT22;33199;47.590;8.300;2023-03-31T15:20:27;13.20;72.60
30594;DHT22;33199;47.590;8.300;2023-03-31T15:22:55;13.30;72.60
30594;DHT22;33199;47.590;8.300;2023-03-31T15:25:26;13.30;72.70
30594;DHT22;33199;47.590;8.300;2023-03-31T15:27:59;13.20;72.60
30594;DHT22;33199;47.590;8.300;2023-03-31T15:30:27;13.30;73.50
30594;DHT22;33199;47.590;8.300;2023-03-31T15:32:53;13.30;72.70
30594;DHT22;33199;47.590;8.300;2023-03-31T15:35:32;13.30;72.70
30594;DHT22;33199;47.590;8.300;2023-03-31T15:37:59;13.30;72.80
30594;DHT22;33199;47.590;8.300;2023-03-31T15:40:26;13.30;72.90
30594;DHT22;33199;47.590;8.300;2023-03-31T15:42:58;13.30;72.80
30594;DHT22;33199;47.590;8.300;2023-03-31T15:48:00;13.30;72.70
30594;DHT22;33199;47.590;8.300;2023-03-31T15:50:27;13.30;72.60
30594;DHT22;33199;47.590;8.300;2023-03-31T15:52:55;13.30;72.50
30594;DHT22;33199;47.590;8.300;2023-03-31T15:55:26;13.20;72.60
30594;DHT22;33199;47.590;8.300;2023-03-31T15:57:55;13.20;72.60
30594;DHT22;33199;47.590;8.300;2023-03-31T16:03:04;13.30;72.80
30594;DHT22;33199;47.590;8.300;2023-03-31T16:05:52;13.30;72.90
30594;DHT22;33199;47.590;8.300;2023-03-31T16:11:03;13.20;72.80
30594;DHT22;33199;47.590;8.300;2023-03-31T16:13:31;13.30;72.90
30594;DHT22;33199;47.590;8.300;2023-03-31T16:15:58;13.30;73.00
30594;DHT22;33199;47.590;8.300;2023-03-31T16:18:26;13.20;73.00
30594;DHT22;33199;47.590;8.300;2023-03-31T16:20:55;13.20;73.00
30594;DHT22;33199;47.590;8.300;2023-03-31T16:23:27;13.30;73.10
30594;DHT22;33199;47.590;8.300;2023-03-31T16:25:55;13.20;72.90
30594;DHT22;33199;47.590;8.300;2023-03-31T16:28:26;13.30;73.00
30594;DHT22;33199;47.590;8.300;2023-03-31T16:30:53;13.30;73.10
30594;DHT22;33199;47.590;8.300;2023-03-31T16:33:20;13.20;73.00
30594;DHT22;33199;47.590;8.300;2023-03-31T16:35:49;13.30;73.20
30594;DHT22;33199;47.590;8.300;2023-03-31T16:38:21;13.20;73.00
30594;DHT22;33199;47.590;8.300;2023-03-31T16:40:49;13.30;73.20
30594;DHT22;33199;47.590;8.300;2023-03-31T16:43:20;13.20;73.00
30594;DHT22;33199;47.590;8.300;2023-03-31T16:46:07;13.20;73.10
30594;DHT22;33199;47.590;8.300;2023-03-31T16:48:38;13.20;73.10
30594;DHT22;33199;47.590;8.300;2023-03-31T16:51:03;13.20;73.10
30594;DHT22;33199;47.590;8.300;2023-03-31T16:53:32;13.20;73.00
30594;DHT22;33199;47.590;8.300;2023-03-31T16:56:03;13.20;73.00
30594;DHT22;33199;47.590;8.300;2023-03-31T16:58:29;13.20;73.10
30594;DHT22;33199;47.590;8.300;2023-03-31T17:00:57;13.20;73.10
30594;DHT22;33199;47.590;8.300;2023-03-31T17:03:23;13.20;73.10
30594;DHT22;33199;47.590;8.300;2023-03-31T17:06:05;13.20;73.10
30594;DHT22;33199;47.590;8.300;2023-03-31T17:08:31;13.20;73.10
30594;DHT22;33199;47.590;8.300;2023-03-31T17:11:06;13.20;73.10
30594;DHT22;33199;47.590;8.300;2023-03-31T17:13:33;13.20;73.20
30594;DHT22;33199;47.590;8.300;2023-03-31T17:16:00;13.20;73.20
30594;DHT22;33199;47.590;8.300;2023-03-31T17:18:25;13.20;73.00
30594;DHT22;33199;47.590;8.300;2023-03-31T17:20:51;13.20;72.90
30594;DHT22;33199;47.590;8.300;2023-03-31T17:23:21;13.20;73.00
30594;DHT22;33199;47.590;8.300;2023-03-31T17:25:49;13.20;73.10
30594;DHT22;33199;47.590;8.300;2023-03-31T17:28:16;13.20;73.10
30594;DHT22;33199;47.590;8.300;2023-03-31T17:30:42;13.20;73.10
30594;DHT22;33199;47.590;8.300;2023-03-31T17:33:09;13.20;72.00
30594;DHT22;33199;47.590;8.300;2023-03-31T17:35:36;13.10;67.50
30594;DHT22;33199;47.590;8.300;2023-03-31T17:38:01;13.10;67.90
30594;DHT22;33199;47.590;8.300;2023-03-31T17:40:31;13.00;68.80
30594;DHT22;33199;47.590;8.300;2023-03-31T17:43:26;13.00;69.20
30594;DHT22;33199;47.590;8.300;2023-03-31T17:46:13;13.00;69.60
30594;DHT22;33199;47.590;8.300;2023-03-31T17:48:40;13.00;70.00
30594;DHT22;33199;47.590;8.300;2023-03-31T17:51:10;13.00;70.00
30594;DHT22;33199;47.590;8.300;2023-03-31T17:53:38;13.00;70.00
30594;DHT22;33199;47.590;8.300;2023-03-31T17:56:04;13.00;70.30
30594;DHT22;33199;47.590;8.300;2023-03-31T17:58:30;13.00;70.50
30594;DHT22;33199;47.590;8.300;2023-03-31T18:00:56;13.00;70.50
30594;DHT22;33199;47.590;8.300;2023-03-31T18:03:22;13.00;70.80
30594;DHT22;33199;47.590;8.300;2023-03-31T18:05:49;13.10;71.20
30594;DHT22;33199;47.590;8.300;2023-03-31T18:08:15;13.10;71.30
30594;DHT22;33199;47.590;8.300;2023-03-31T18:10:46;13.10;71.40
30594;DHT22;33199;47.590;8.300;2023-03-31T18:13:12;13.10;71.50
30594;DHT22;33199;47.590;8.300;2023-03-31T18:15:38;13.10;71.50
30594;DHT22;33199;47.590;8.300;2023-03-31T18:18:04;13.10;71.60
30594;DHT22;33199;47.590;8.300;2023-03-31T18:20:32;13.10;71.80
30594;DHT22;33199;47.590;8.300;2023-03-31T18:23:01;13.10;72.20
30594;DHT22;33199;47.590;8.300;2023-03-31T18:25:27;13.10;72.60
30594;DHT22;33199;47.590;8.300;2023-03-31T18:27:53;13.10;72.60
30594;DHT22;33199;47.590;8.300;2023-03-31T18:30:19;13.10;72.70
30594;DHT22;33199;47.590;8.300;2023-03-31T18:32:44;13.10;72.70
30594;DHT22;33199;47.590;8.300;2023-03-31T18:35:10;13.10;72.80
30594;DHT22;33199;47.590;8.300;2023-03-31T18:37:36;13.10;73.00
30594;DHT22;33199;47.590;8.300;2023-03-31T18:40:01;13.10;73.00
30594;DHT22;33199;47.590;8.300;2023-03-31T18:42:28;13.10;73.10
30594;DHT22;33199;47.590;8.300;2023-03-31T18:44:53;13.10;73.10
30594;DHT22;33199;47.590;8.300;2023-03-31T18:47:19;13.00;73.00
30594;DHT22;33199;47.590;8.300;2023-03-31T18:49:46;13.10;73.00
30594;DHT22;33199;47.590;8.300;2023-03-31T18:52:15;13.10;73.40